Time;durP1;ratioP1;P1;durP2;ratioP2;P2;SDS_P1;SDS_P2;PMS_P1;PMS_P2;Temp;Humidity;BMP_temperature;BMP_pressure;BME280_temperature;BME280_humidity;BME280_pressure;Samples;Min_cycle;Max_cycle;Signal;HPM_P1;HPM_P2
2023/07/29 00:01:20;;;;;;;1.75;1.20;;;22.50;98.70;;;;;;5083239;28;20032;-73
2023/07/29 00:03:45;;;;;;;2.10;1.00;;;22.40;98.60;;;;;;5074042;28;20489;-73
2023/07/29 00:06:11;;;;;;;1.30;1.00;;;22.50;98.60;;;;;;5071231;28;20082;-73
2023/07/29 00:08:37;;;;;;;2.00;1.20;;;22.40;98.60;;;;;;5072614;28;20036;-73
2023/07/29 00:11:02;;;;;;;3.28;1.50;;;22.40;98.60;;;;;;5079754;28;20067;-73
2023/07/29 00:13:28;;;;;;;1.85;1.08;;;22.40;98.60;;;;;;5073467;28;20021;-73
2023/07/29 00:15:58;;;;;;;2.83;1.13;;;22.40;98.60;;;;;;5074419;28;20028;-73
2023/07/29 00:18:23;;;;;;;1.02;0.80;;;22.40;98.70;;;;;;5093695;28;20554;-73
2023/07/29 00:20:50;;;;;;;3.65;1.48;;;22.40;98.70;;;;;;5092012;28;20024;-74
2023/07/29 00:23:18;;;;;;;3.17;1.20;;;22.30;98.80;;;;;;5093553;28;20055;-74
2023/07/29 00:25:44;;;;;;;3.15;1.55;;;22.30;98.90;;;;;;5093590;28;20529;-74
2023/07/29 00:28:11;;;;;;;1.45;0.93;;;22.30;99.00;;;;;;5089640;28;20032;-74
2023/07/29 00:30:36;;;;;;;2.97;1.42;;;22.30;99.00;;;;;;5092936;28;20385;-74
2023/07/29 00:33:02;;;;;;;2.08;1.17;;;22.30;99.00;;;;;;5091663;28;20028;-74
2023/07/29 00:35:27;;;;;;;3.90;1.40;;;22.30;99.00;;;;;;5091240;28;20016;-74
2023/07/29 00:37:53;;;;;;;3.08;1.25;;;22.20;99.10;;;;;;5093044;28;20366;-74
2023/07/29 00:40:22;;;;;;;1.75;0.95;;;22.20;99.10;;;;;;5092543;28;20021;-74
2023/07/29 00:42:50;;;;;;;1.83;1.33;;;22.20;99.10;;;;;;5091809;28;20024;-74
2023/07/29 00:45:15;;;;;;;2.28;1.30;;;22.20;99.10;;;;;;5093049;28;20089;-74
2023/07/29 00:47:42;;;;;;;2.67;1.50;;;22.20;99.10;;;;;;5091989;28;20024;-73
2023/07/29 00:50:12;;;;;;;2.50;1.20;;;22.20;99.00;;;;;;5092048;28;20078;-73
2023/07/29 00:52:38;;;;;;;1.48;1.23;;;22.10;98.90;;;;;;5093186;28;20052;-73
2023/07/29 00:55:05;;;;;;;1.50;1.17;;;22.20;98.90;;;;;;5087883;28;20058;-73
2023/07/29 00:57:32;;;;;;;1.95;1.30;;;22.10;98.80;;;;;;5082774;28;20094;-73
2023/07/29 00:59:58;;;;;;;2.83;1.45;;;22.10;98.70;;;;;;5090359;28;20032;-73
2023/07/29 01:02:23;;;;;;;2.13;1.17;;;22.10;98.60;;;;;;5074806;28;20409;-73
2023/07/29 01:04:59;;;;;;;3.30;1.27;;;22.10;98.50;;;;;;5070830;28;20441;-73
2023/07/29 01:07:44;;;;;;;3.75;1.80;;;22.10;98.50;;;;;;5071356;28;20020;-74
2023/07/29 01:10:19;;;;;;;2.05;1.40;;;22.10;98.50;;;;;;5070945;28;20060;-73
2023/07/29 01:12:54;;;;;;;1.73;1.25;;;22.00;98.40;;;;;;5071868;28;20016;-73
2023/07/29 01:15:31;;;;;;;3.92;1.23;;;22.00;98.50;;;;;;5072834;28;20052;-73
2023/07/29 01:18:04;;;;;;;1.70;1.20;;;22.00;98.50;;;;;;5072838;28;20021;-73
2023/07/29 01:20:36;;;;;;;2.67;1.17;;;22.00;98.40;;;;;;5072815;28;20023;-73
2023/07/29 01:23:02;;;;;;;;;;;22.00;98.40;;;;;;5073000;28;20025;-73
2023/07/29 01:25:27;;;;;;;2.10;1.52;;;22.00;98.30;;;;;;5072940;28;19908;-73
2023/07/29 01:27:53;;;;;;;1.85;1.30;;;21.90;98.30;;;;;;5072712;28;20024;-73
2023/07/29 01:30:26;;;;;;;2.20;1.45;;;21.90;98.30;;;;;;5072306;28;20048;-73
2023/07/29 01:32:54;;;;;;;2.63;1.05;;;21.90;98.20;;;;;;5082174;28;20039;-73
2023/07/29 01:35:37;;;;;;;1.65;1.35;;;21.80;98.20;;;;;;5086554;28;20063;-74
2023/07/29 01:38:13;;;;;;;5.65;1.52;;;21.90;98.20;;;;;;5092687;28;20028;-73
2023/07/29 01:40:40;;;;;;;1.70;1.17;;;21.90;98.30;;;;;;5091885;28;20020;-73
2023/07/29 01:43:08;;;;;;;1.67;1.30;;;21.90;98.30;;;;;;5092334;28;20447;-73
2023/07/29 01:45:37;;;;;;;2.25;1.48;;;21.90;98.30;;;;;;5093152;28;20075;-73
2023/07/29 01:48:07;;;;;;;2.92;1.27;;;21.80;98.30;;;;;;5096333;28;20027;-73
2023/07/29 01:50:33;;;;;;;2.08;1.38;;;21.80;98.30;;;;;;5096379;28;20031;-73
2023/07/29 01:52:59;;;;;;;2.47;1.52;;;21.80;98.40;;;;;;5096501;28;20069;-73
2023/07/29 01:55:25;;;;;;;1.67;1.35;;;21.80;98.40;;;;;;5096319;28;20032;-73
2023/07/29 01:57:51;;;;;;;3.15;1.48;;;21.70;98.40;;;;;;5095854;28;20035;-73
2023/07/29 02:00:20;;;;;;;2.17;1.70;;;21.70;98.50;;;;;;5095997;28;20481;-73
2023/07/29 02:02:46;;;;;;;2.42;1.70;;;21.70;98.70;;;;;;5096257;28;20024;-73
2023/07/29 02:05:12;;;;;;;3.28;1.58;;;21.70;98.70;;;;;;5096019;28;20473;-73
2023/07/29 02:07:37;;;;;;;3.60;1.50;;;21.70;98.50;;;;;;5096187;28;20032;-73
2023/07/29 02:10:03;;;;;;;2.55;1.42;;;21.70;98.60;;;;;;5095949;28;20028;-73
2023/07/29 02:12:28;;;;;;;3.33;1.30;;;21.70;98.60;;;;;;5095802;28;20013;-73
2023/07/29 02:14:54;;;;;;;4.93;1.70;;;21.70;98.60;;;;;;5094583;28;20461;-73
2023/07/29 02:17:19;;;;;;;1.60;1.13;;;21.70;98.60;;;;;;5096139;28;20023;-73
2023/07/29 02:19:45;;;;;;;2.45;1.50;;;21.60;98.70;;;;;;5095619;28;20491;-73
2023/07/29 02:22:14;;;;;;;3.65;1.70;;;21.60;98.80;;;;;;5095792;28;20372;-73
2023/07/29 02:24:39;;;;;;;2.30;1.40;;;21.60;98.80;;;;;;5095673;28;20035;-73
2023/07/29 02:27:05;;;;;;;3.45;1.58;;;21.60;98.90;;;;;;5095384;28;20028;-73
2023/07/29 02:29:32;;;;;;;2.17;1.55;;;21.60;99.00;;;;;;5084787;28;20024;-73
2023/07/29 02:31:58;;;;;;;2.70;1.60;;;21.60;99.10;;;;;;5074457;28;20012;-73
2023/07/29 02:34:24;;;;;;;3.60;1.85;;;21.50;99.10;;;;;;5073889;28;20380;-73
2023/07/29 02:36:49;;;;;;;3.80;2.10;;;21.50;99.20;;;;;;5075270;28;20024;-73
2023/07/29 02:39:15;;;;;;;3.22;1.63;;;21.50;99.30;;;;;;5072474;28;20028;-74
2023/07/29 02:41:40;;;;;;;1.65;1.40;;;21.50;99.30;;;;;;5072738;28;20399;-73
2023/07/29 02:44:06;;;;;;;1.88;1.60;;;21.50;99.40;;;;;;5075049;28;20385;-73
2023/07/29 02:46:32;;;;;;;2.22;1.65;;;21.50;99.40;;;;;;5075031;28;20113;-73
2023/07/29 02:48:57;;;;;;;3.40;1.60;;;21.40;99.50;;;;;;5074825;28;20366;-73
2023/07/29 02:51:23;;;;;;;2.58;1.60;;;21.50;99.50;;;;;;5074973;28;20107;-73
2023/07/29 02:53:48;;;;;;;4.65;1.67;;;21.40;99.60;;;;;;5075000;28;20017;-73
2023/07/29 02:56:14;;;;;;;3.40;2.00;;;21.40;99.70;;;;;;5073912;28;20033;-74
2023/07/29 02:58:40;;;;;;;3.00;1.75;;;21.40;99.70;;;;;;5074445;28;20048;-73
2023/07/29 03:01:06;;;;;;;2.17;1.70;;;21.40;99.70;;;;;;5074717;28;20040;-74
2023/07/29 03:03:32;;;;;;;2.47;2.00;;;21.40;99.80;;;;;;5074846;28;20075;-74
2023/07/29 03:06:04;;;;;;;3.53;2.00;;;21.40;99.80;;;;;;5074677;28;20530;-73
2023/07/29 03:08:30;;;;;;;2.53;2.15;;;21.30;99.80;;;;;;5074801;28;20086;-74
2023/07/29 03:10:56;;;;;;;4.82;2.10;;;21.30;99.80;;;;;;5074282;28;20024;-74
2023/07/29 03:13:22;;;;;;;2.30;2.05;;;21.40;99.90;;;;;;5074463;28;20017;-74
2023/07/29 03:15:48;;;;;;;3.83;2.05;;;21.30;99.90;;;;;;5074305;28;20641;-74
2023/07/29 03:18:14;;;;;;;3.67;2.00;;;21.30;99.90;;;;;;5074458;28;20016;-74
2023/07/29 03:20:40;;;;;;;3.28;2.00;;;21.30;99.90;;;;;;5074246;28;20028;-74
2023/07/29 03:23:06;;;;;;;3.72;2.50;;;21.30;99.90;;;;;;5074494;28;20073;-73
2023/07/29 03:25:32;;;;;;;7.63;1.90;;;21.30;99.90;;;;;;5074157;28;20031;-73
2023/07/29 03:27:57;;;;;;;3.42;2.28;;;21.30;99.90;;;;;;5074109;28;20100;-74
2023/07/29 03:30:23;;;;;;;3.08;2.00;;;21.20;99.90;;;;;;5074447;28;20060;-74
2023/07/29 03:32:49;;;;;;;4.40;1.90;;;21.20;99.90;;;;;;5074041;28;20029;-74
2023/07/29 03:35:15;;;;;;;3.33;1.90;;;21.20;99.90;;;;;;5074178;28;20027;-74
2023/07/29 03:37:41;;;;;;;5.38;1.95;;;21.20;99.90;;;;;;5073934;28;20115;-73
2023/07/29 03:40:08;;;;;;;3.50;2.08;;;21.20;99.90;;;;;;5072531;28;20028;-74
2023/07/29 03:42:34;;;;;;;4.80;2.00;;;21.20;99.90;;;;;;5074080;28;20442;-73
2023/07/29 03:45:00;;;;;;;3.70;1.73;;;21.10;99.90;;;;;;5073878;28;20485;-73
2023/07/29 03:47:26;;;;;;;2.83;1.67;;;21.20;99.90;;;;;;5073838;28;20488;-73
2023/07/29 03:49:51;;;;;;;2.83;1.92;;;21.10;99.90;;;;;;5073929;28;20058;-73
2023/07/29 03:52:17;;;;;;;2.90;1.60;;;21.10;99.90;;;;;;5073594;28;20048;-73
2023/07/29 03:54:42;;;;;;;3.25;1.92;;;21.10;99.90;;;;;;5073420;28;20028;-73
2023/07/29 03:57:08;;;;;;;2.00;1.70;;;21.10;99.90;;;;;;5073248;28;20028;-73
2023/07/29 03:59:33;;;;;;;4.13;1.63;;;21.10;99.90;;;;;;5075638;28;20040;-73
2023/07/29 04:01:59;;;;;;;3.90;2.05;;;21.00;99.90;;;;;;5080257;28;20022;-73
2023/07/29 04:04:24;;;;;;;3.08;1.88;;;21.00;99.90;;;;;;5078258;28;20389;-73
2023/07/29 04:06:50;;;;;;;3.70;1.67;;;21.00;99.90;;;;;;5073384;28;20028;-73
2023/07/29 04:09:15;;;;;;;1.92;1.63;;;21.00;99.90;;;;;;5073095;28;20024;-73
2023/07/29 04:11:41;;;;;;;2.55;1.50;;;21.00;99.90;;;;;;5073277;28;20031;-73
2023/07/29 04:14:07;;;;;;;1.60;1.40;;;21.00;99.90;;;;;;5073778;28;20040;-73
2023/07/29 04:16:32;;;;;;;2.85;1.67;;;21.00;99.90;;;;;;5077456;28;20084;-73
2023/07/29 04:18:58;;;;;;;2.83;1.73;;;21.00;99.90;;;;;;5080458;28;20028;-73
2023/07/29 04:21:23;;;;;;;3.58;1.42;;;20.90;99.90;;;;;;5073483;28;20017;-73
2023/07/29 04:23:49;;;;;;;3.30;1.60;;;20.90;99.90;;;;;;5072822;28;20420;-73
2023/07/29 04:26:14;;;;;;;2.88;1.40;;;21.00;99.90;;;;;;5073365;28;20462;-73
2023/07/29 04:28:40;;;;;;;3.42;2.10;;;21.00;99.90;;;;;;5073362;28;20032;-73
2023/07/29 04:31:05;;;;;;;2.70;1.92;;;21.00;99.90;;;;;;5078561;28;20043;-73
2023/07/29 04:33:31;;;;;;;2.75;1.70;;;20.90;99.90;;;;;;5092463;28;20043;-73
2023/07/29 04:35:57;;;;;;;3.22;1.50;;;20.90;99.90;;;;;;5093604;28;20040;-73
2023/07/29 04:38:27;;;;;;;4.70;1.75;;;20.90;99.90;;;;;;5083556;28;20025;-73
2023/07/29 04:40:53;;;;;;;6.07;1.48;;;20.90;99.90;;;;;;5073349;28;20052;-73
2023/07/29 04:43:18;;;;;;;3.40;1.65;;;20.90;99.90;;;;;;5073102;28;20039;-73
2023/07/29 04:45:44;;;;;;;6.13;2.05;;;20.90;99.90;;;;;;5073157;28;20024;-73
2023/07/29 04:48:09;;;;;;;1.92;1.52;;;20.90;99.90;;;;;;5072734;28;20036;-73
2023/07/29 04:50:35;;;;;;;2.28;1.60;;;20.90;99.90;;;;;;5073201;28;20385;-73
2023/07/29 04:53:00;;;;;;;5.43;1.50;;;20.90;99.90;;;;;;5072795;28;20033;-73
2023/07/29 04:55:26;;;;;;;1.92;1.38;;;20.80;99.90;;;;;;5073298;28;20017;-73
2023/07/29 04:57:52;;;;;;;2.13;1.50;;;20.90;99.90;;;;;;5073563;28;20082;-73
2023/07/29 05:00:17;;;;;;;4.90;2.00;;;20.80;99.90;;;;;;5073973;28;20054;-73
2023/07/29 05:02:43;;;;;;;4.97;1.63;;;20.80;99.90;;;;;;5072975;28;20039;-73
2023/07/29 05:05:08;;;;;;;2.47;1.45;;;20.80;99.90;;;;;;5072731;28;20089;-73
2023/07/29 05:07:34;;;;;;;5.13;1.70;;;20.80;99.90;;;;;;5072478;28;20017;-73
2023/07/29 05:10:00;;;;;;;2.53;1.40;;;20.80;99.90;;;;;;5072759;28;20526;-73
2023/07/29 05:12:25;;;;;;;2.65;1.83;;;20.80;99.90;;;;;;5072928;28;20032;-73
2023/07/29 05:14:51;;;;;;;3.10;1.40;;;20.80;99.90;;;;;;5072628;28;20039;-73
2023/07/29 05:17:17;;;;;;;2.47;1.40;;;20.80;99.90;;;;;;5072899;28;20052;-73
2023/07/29 05:19:42;;;;;;;2.97;1.65;;;20.80;99.90;;;;;;5072976;28;20103;-73
2023/07/29 05:22:08;;;;;;;2.75;1.70;;;20.80;99.90;;;;;;5076536;28;20098;-73
2023/07/29 05:24:33;;;;;;;2.05;1.38;;;20.80;99.90;;;;;;5076470;28;20032;-73
2023/07/29 05:26:59;;;;;;;2.53;1.58;;;20.80;99.90;;;;;;5076570;28;20078;-73
2023/07/29 05:29:24;;;;;;;5.47;2.00;;;20.70;99.90;;;;;;5076345;28;20032;-73
2023/07/29 05:31:50;;;;;;;2.85;1.45;;;20.70;99.90;;;;;;5076781;28;20036;-73
2023/07/29 05:34:15;;;;;;;3.47;1.58;;;20.80;99.90;;;;;;5076381;28;20097;-74
2023/07/29 05:36:41;;;;;;;2.85;1.23;;;20.70;99.90;;;;;;5076091;28;20539;-73
2023/07/29 05:39:07;;;;;;;2.08;1.25;;;20.70;99.90;;;;;;5075159;28;20473;-74
2023/07/29 05:41:33;;;;;;;3.20;1.42;;;20.80;99.90;;;;;;5076350;28;20066;-73
2023/07/29 05:43:58;;;;;;;2.72;1.50;;;20.70;99.90;;;;;;5074979;28;20086;-73
2023/07/29 05:46:24;;;;;;;2.67;1.42;;;20.70;99.90;;;;;;5076251;28;20103;-73
2023/07/29 05:48:49;;;;;;;5.65;2.15;;;20.70;99.90;;;;;;5076185;28;20025;-73
2023/07/29 05:51:15;;;;;;;2.08;1.48;;;20.70;99.90;;;;;;5075943;28;20073;-73
2023/07/29 05:53:40;;;;;;;2.42;1.67;;;20.70;99.90;;;;;;5076202;28;20031;-73
2023/07/29 05:56:06;;;;;;;1.92;1.60;;;20.70;99.90;;;;;;5076019;28;20024;-73
2023/07/29 05:58:32;;;;;;;2.92;1.58;;;20.80;99.90;;;;;;5075960;28;20031;-74
2023/07/29 06:00:58;;;;;;;4.07;1.65;;;20.80;99.90;;;;;;5075833;28;20039;-74
2023/07/29 06:03:23;;;;;;;2.30;1.17;;;20.80;99.90;;;;;;5075796;28;20078;-73
2023/07/29 06:05:50;;;;;;;3.63;1.48;;;20.80;99.90;;;;;;5075439;28;20056;-73
2023/07/29 06:08:15;;;;;;;2.22;1.10;;;20.90;99.90;;;;;;5075869;28;20013;-73
2023/07/29 06:10:41;;;;;;;4.50;1.42;;;20.90;99.90;;;;;;5075848;28;20037;-73
2023/07/29 06:13:06;;;;;;;3.28;1.02;;;21.00;99.90;;;;;;5075809;28;20047;-73
2023/07/29 06:15:32;;;;;;;1.13;0.77;;;21.10;99.90;;;;;;5075720;28;20020;-73
2023/07/29 06:17:57;;;;;;;3.08;1.02;;;21.10;99.90;;;;;;5075779;28;20021;-73
2023/07/29 06:20:23;;;;;;;1.52;1.00;;;21.20;99.90;;;;;;5075283;28;20070;-73
2023/07/29 06:22:49;;;;;;;6.93;1.70;;;21.20;99.70;;;;;;5075775;28;20035;-72
2023/07/29 06:25:14;;;;;;;1.92;0.98;;;21.30;98.90;;;;;;5075394;28;20473;-73
2023/07/29 06:27:40;;;;;;;3.00;0.90;;;21.40;98.60;;;;;;5075509;28;20017;-72
2023/07/29 06:30:06;;;;;;;2.70;0.90;;;21.40;98.40;;;;;;5075383;28;20043;-72
2023/07/29 06:32:32;;;;;;;2.55;0.95;;;21.40;98.20;;;;;;5075428;28;20512;-73
2023/07/29 06:34:57;;;;;;;1.67;1.10;;;21.50;98.10;;;;;;5075111;28;20020;-72
2023/07/29 06:37:23;;;;;;;3.00;1.00;;;21.50;98.10;;;;;;5075216;28;20032;-72
2023/07/29 06:39:48;;;;;;;1.77;0.90;;;21.50;98.20;;;;;;5075438;28;20016;-72
2023/07/29 06:42:14;;;;;;;1.50;0.80;;;21.60;98.20;;;;;;5075255;28;20028;-73
2023/07/29 06:44:40;;;;;;;3.33;1.13;;;21.60;98.20;;;;;;5075128;28;20068;-73
2023/07/29 06:47:05;;;;;;;3.03;0.85;;;21.60;98.20;;;;;;5074711;28;20027;-72
2023/07/29 06:49:31;;;;;;;2.13;1.00;;;21.60;98.00;;;;;;5075046;28;20020;-73
2023/07/29 06:51:56;;;;;;;1.90;1.10;;;21.70;98.10;;;;;;5075155;28;20013;-73
2023/07/29 06:54:28;;;;;;;3.50;1.05;;;21.70;98.00;;;;;;5073753;28;20082;-72
2023/07/29 06:56:54;;;;;;;2.22;1.05;;;21.70;98.00;;;;;;5074976;28;20056;-73
2023/07/29 06:59:20;;;;;;;1.77;0.90;;;21.70;97.80;;;;;;5074751;28;20059;-72
2023/07/29 07:01:46;;;;;;;3.35;1.00;;;21.80;97.60;;;;;;5074525;28;20079;-72
2023/07/29 07:04:11;;;;;;;2.53;0.80;;;21.80;97.50;;;;;;5074897;28;20094;-72
2023/07/29 07:06:37;;;;;;;1.55;1.05;;;21.80;97.50;;;;;;5074649;28;20025;-72
2023/07/29 07:09:03;;;;;;;1.95;0.60;;;21.80;97.50;;;;;;5074686;28;20039;-72
2023/07/29 07:11:28;;;;;;;2.00;1.02;;;21.80;97.40;;;;;;5074559;28;20423;-73
2023/07/29 07:13:54;;;;;;;1.63;0.75;;;21.80;97.50;;;;;;5074713;28;20029;-72
2023/07/29 07:16:19;;;;;;;2.30;1.20;;;21.80;97.50;;;;;;5074503;28;20024;-73
2023/07/29 07:18:45;;;;;;;1.30;0.77;;;21.90;97.80;;;;;;5073134;28;20081;-73
2023/07/29 07:21:11;;;;;;;2.78;1.05;;;21.80;97.50;;;;;;5076513;28;20020;-77
2023/07/29 07:23:36;;;;;;;3.78;0.90;;;21.90;98.20;;;;;;5077843;28;20032;-77
2023/07/29 07:26:02;;;;;;;2.28;0.90;;;21.90;98.30;;;;;;5077329;28;20028;-74
2023/07/29 07:28:28;;;;;;;2.25;0.80;;;21.90;98.80;;;;;;5078290;28;20025;-75
2023/07/29 07:30:55;;;;;;;1.48;0.68;;;21.90;99.10;;;;;;5079775;28;20036;-74
2023/07/29 07:33:21;;;;;;;2.47;0.70;;;21.90;99.20;;;;;;5076413;28;20134;-74
2023/07/29 07:35:47;;;;;;;2.20;0.90;;;21.90;99.40;;;;;;5075459;28;20034;-75
2023/07/29 07:38:12;;;;;;;3.13;0.90;;;21.90;99.40;;;;;;5077236;28;20389;-74
2023/07/29 07:40:38;;;;;;;3.78;1.10;;;21.90;99.40;;;;;;5077192;28;20414;-74
2023/07/29 07:43:03;;;;;;;3.78;1.02;;;22.00;99.40;;;;;;5076826;28;20575;-75
2023/07/29 07:45:29;;;;;;;4.97;1.10;;;22.00;99.40;;;;;;5076756;28;20047;-73
2023/07/29 07:47:55;;;;;;;1.60;0.70;;;22.00;99.40;;;;;;5080098;28;20033;-75
2023/07/29 07:50:21;;;;;;;2.90;0.93;;;22.00;99.40;;;;;;5077781;28;20053;-74
2023/07/29 07:52:47;;;;;;;3.35;0.85;;;22.00;99.40;;;;;;5080976;28;20024;-75
2023/07/29 07:55:12;;;;;;;2.47;1.05;;;22.00;99.40;;;;;;5075209;28;20461;-74
2023/07/29 07:57:38;;;;;;;5.78;1.25;;;22.00;99.50;;;;;;5079503;28;20461;-77
2023/07/29 08:00:04;;;;;;;5.03;1.00;;;22.10;99.50;;;;;;5071274;28;20040;-76
2023/07/29 08:02:30;;;;;;;2.88;0.70;;;22.10;99.50;;;;;;5076225;28;20107;-78
2023/07/29 08:04:55;;;;;;;3.85;0.90;;;22.10;99.50;;;;;;5079170;28;20115;-77
2023/07/29 08:07:21;;;;;;;2.25;0.85;;;22.10;99.50;;;;;;5076200;28;20016;-75
2023/07/29 08:09:46;;;;;;;4.25;0.82;;;22.10;99.50;;;;;;5076980;28;20495;-78
2023/07/29 08:12:12;;;;;;;2.38;0.90;;;22.10;99.50;;;;;;5077027;28;20557;-78
2023/07/29 08:14:38;;;;;;;3.88;1.23;;;22.10;99.50;;;;;;5073950;28;20493;-78
2023/07/29 08:17:03;;;;;;;2.22;0.65;;;22.20;99.60;;;;;;5080436;28;20357;-78
2023/07/29 08:19:29;;;;;;;2.92;0.60;;;22.20;99.60;;;;;;5076848;28;20020;-78
2023/07/29 08:21:54;;;;;;;2.35;0.80;;;22.20;99.50;;;;;;5078516;28;20356;-77
2023/07/29 08:24:20;;;;;;;2.03;0.85;;;22.30;99.50;;;;;;5079467;28;20072;-78
2023/07/29 08:26:46;;;;;;;2.28;0.77;;;22.30;99.50;;;;;;5071906;28;20016;-75
2023/07/29 08:29:12;;;;;;;2.55;0.70;;;22.30;99.50;;;;;;5072729;28;20046;-75
2023/07/29 08:31:37;;;;;;;5.00;0.93;;;22.30;99.50;;;;;;5072828;28;20108;-73
2023/07/29 08:34:03;;;;;;;6.40;0.65;;;22.30;99.40;;;;;;5074518;28;20025;-77
2023/07/29 08:36:29;;;;;;;4.22;1.35;;;22.40;99.40;;;;;;5078024;28;20050;-73
2023/07/29 08:38:54;;;;;;;2.45;0.90;;;22.40;99.50;;;;;;5074501;28;20036;-74
2023/07/29 08:41:26;;;;;;;5.45;0.90;;;22.40;99.50;;;;;;5071314;28;20036;-74
2023/07/29 08:44:12;;;;;;;7.25;0.82;;;22.40;99.40;;;;;;5079795;28;20052;-73
2023/07/29 08:46:39;;;;;;;5.38;1.10;;;22.40;99.40;;;;;;5071986;28;20020;-73
2023/07/29 08:49:05;;;;;;;4.88;1.20;;;22.50;99.40;;;;;;5071999;28;20017;-72
2023/07/29 08:51:32;;;;;;;6.53;1.00;;;22.50;99.40;;;;;;5071601;28;20024;-72
2023/07/29 08:53:59;;;;;;;3.67;0.82;;;22.50;99.30;;;;;;5071656;28;20044;-75
2023/07/29 08:56:25;;;;;;;5.28;0.93;;;22.50;99.20;;;;;;5079932;28;20024;-75
2023/07/29 08:58:52;;;;;;;1.85;0.63;;;22.60;99.20;;;;;;5082421;28;20021;-74
2023/07/29 09:01:17;;;;;;;3.55;0.80;;;22.60;99.30;;;;;;5074331;28;20079;-74
2023/07/29 09:03:43;;;;;;;2.55;0.55;;;22.60;99.30;;;;;;5074856;28;20060;-74
2023/07/29 09:06:08;;;;;;;1.45;0.80;;;22.60;99.20;;;;;;5075372;28;20392;-75
2023/07/29 09:08:35;;;;;;;6.60;1.27;;;22.70;99.20;;;;;;5083778;28;20031;-75
2023/07/29 09:11:01;;;;;;;1.20;0.65;;;22.70;99.10;;;;;;5077758;28;20025;-75
2023/07/29 09:13:26;;;;;;;1.48;0.75;;;22.70;99.10;;;;;;5076331;28;20102;-74
2023/07/29 09:15:57;;;;;;;2.15;1.00;;;22.70;99.00;;;;;;5095244;28;20421;-74
2023/07/29 09:18:22;;;;;;;1.58;0.70;;;22.70;99.00;;;;;;5078859;28;20066;-74
2023/07/29 09:20:49;;;;;;;3.33;0.73;;;22.70;99.00;;;;;;5078020;28;20024;-75
2023/07/29 09:23:15;;;;;;;1.50;1.00;;;22.80;99.00;;;;;;5078775;28;20032;-75
2023/07/29 09:25:42;;;;;;;2.13;0.57;;;22.80;99.00;;;;;;5075242;28;20210;-75
2023/07/29 09:28:12;;;;;;;2.08;0.80;;;22.80;98.90;;;;;;5081183;28;20051;-75
2023/07/29 09:30:44;;;;;;;1.33;0.50;;;22.80;98.80;;;;;;5084704;28;20100;-75
2023/07/29 09:33:10;;;;;;;4.28;1.00;;;22.90;98.80;;;;;;5077488;28;20060;-76
2023/07/29 09:35:37;;;;;;;1.55;0.82;;;22.90;98.70;;;;;;5075014;28;20421;-75
2023/07/29 09:38:07;;;;;;;2.97;1.05;;;22.90;98.60;;;;;;5074702;28;20496;-76
2023/07/29 09:40:40;;;;;;;2.50;0.80;;;22.90;98.50;;;;;;5075374;28;20354;-77
2023/07/29 09:43:07;;;;;;;2.25;0.88;;;22.90;98.50;;;;;;5077298;28;20090;-76
2023/07/29 09:45:35;;;;;;;2.85;1.10;;;23.00;98.50;;;;;;5074757;28;20029;-77
2023/07/29 09:48:01;;;;;;;2.70;0.80;;;22.90;98.40;;;;;;5074956;28;20045;-77
2023/07/29 09:50:27;;;;;;;2.67;0.98;;;22.90;98.30;;;;;;5074190;28;20443;-75
2023/07/29 09:52:54;;;;;;;1.80;0.98;;;23.00;98.40;;;;;;5079555;28;20482;-76
2023/07/29 09:55:23;;;;;;;2.92;1.02;;;23.00;98.40;;;;;;5081303;28;20024;-75
2023/07/29 09:57:57;;;;;;;4.15;0.80;;;23.00;98.30;;;;;;5074512;28;20048;-76
2023/07/29 10:00:23;;;;;;;2.55;1.17;;;23.00;98.30;;;;;;5083567;28;20020;-75
2023/07/29 10:02:49;;;;;;;1.63;0.85;;;23.00;98.40;;;;;;5077411;28;20063;-75
2023/07/29 10:05:15;;;;;;;1.92;1.02;;;23.00;98.50;;;;;;5079098;28;20117;-78
2023/07/29 10:07:40;;;;;;;3.03;1.05;;;23.10;98.50;;;;;;5083588;28;20040;-76
2023/07/29 10:10:07;;;;;;;4.53;1.83;;;23.10;98.50;;;;;;5080344;28;20024;-75
2023/07/29 10:12:34;;;;;;;7.35;1.33;;;23.10;98.70;;;;;;5086856;28;20039;-75
2023/07/29 10:15:05;;;;;;;6.55;1.15;;;23.10;98.60;;;;;;5076418;28;20044;-75
2023/07/29 10:17:34;;;;;;;2.15;1.00;;;23.10;98.70;;;;;;5077352;28;20048;-74
2023/07/29 10:20:00;;;;;;;5.15;1.02;;;23.10;98.60;;;;;;5081144;28;20042;-76
2023/07/29 10:22:35;;;;;;;5.50;1.17;;;23.10;98.70;;;;;;5082837;28;20008;-75
2023/07/29 10:25:05;;;;;;;3.25;1.13;;;23.10;98.80;;;;;;5078170;28;20433;-75
2023/07/29 10:27:36;;;;;;;2.65;1.05;;;23.10;98.80;;;;;;5080135;28;20028;-74
2023/07/29 10:30:02;;;;;;;1.80;0.85;;;23.10;98.80;;;;;;5083065;28;20032;-76
2023/07/29 10:32:30;;;;;;;3.20;1.30;;;23.20;99.00;;;;;;5075650;28;20060;-74
2023/07/29 10:34:56;;;;;;;3.30;1.10;;;23.20;99.00;;;;;;5084922;28;20063;-75
2023/07/29 10:37:23;;;;;;;5.40;1.40;;;23.20;99.00;;;;;;5083448;28;20048;-75
2023/07/29 10:39:55;;;;;;;5.15;1.40;;;23.20;99.10;;;;;;5078661;28;20020;-75
2023/07/29 10:42:22;;;;;;;3.40;1.10;;;23.20;99.00;;;;;;5075553;28;20032;-75
2023/07/29 10:44:49;;;;;;;1.70;0.95;;;23.20;99.10;;;;;;5077424;28;20086;-74
2023/07/29 10:47:14;;;;;;;2.92;0.80;;;23.20;99.00;;;;;;5077869;28;20016;-75
2023/07/29 10:49:41;;;;;;;2.22;0.90;;;23.20;99.00;;;;;;5084506;28;20175;-75
2023/07/29 10:52:06;;;;;;;2.38;0.77;;;23.30;98.90;;;;;;5079512;28;20555;-75
2023/07/29 10:54:44;;;;;;;2.15;0.85;;;23.30;98.90;;;;;;5082808;28;20024;-77
2023/07/29 10:57:17;;;;;;;5.90;1.80;;;23.30;98.90;;;;;;5075806;28;20009;-75
2023/07/29 11:00:03;;;;;;;4.53;1.67;;;23.30;99.70;;;;;;5079336;28;20119;-75
2023/07/29 11:02:30;;;;;;;3.97;1.75;;;23.30;99.50;;;;;;5080853;28;20031;-77
2023/07/29 11:04:56;;;;;;;5.03;1.75;;;23.30;99.70;;;;;;5079739;28;20370;-77
2023/07/29 11:07:26;;;;;;;2.85;1.50;;;23.30;99.90;;;;;;5077927;28;20512;-76
2023/07/29 11:10:04;;;;;;;3.38;1.80;;;23.30;99.90;;;;;;5074404;28;20044;-76
2023/07/29 11:12:54;;;;;;;5.32;2.05;;;23.30;99.90;;;;;;5078713;28;20035;-77
2023/07/29 11:15:22;;;;;;;7.53;2.47;;;23.30;99.90;;;;;;5073544;28;20028;-77
2023/07/29 11:18:02;;;;;;;4.30;1.50;;;23.30;99.90;;;;;;5075833;28;20036;-76
2023/07/29 11:20:30;;;;;;;3.35;1.50;;;23.40;99.90;;;;;;5073804;28;20029;-76
2023/07/29 11:22:57;;;;;;;4.40;2.00;;;23.30;99.90;;;;;;5077791;28;20020;-76
2023/07/29 11:25:24;;;;;;;3.30;1.60;;;23.40;99.90;;;;;;5073340;28;20042;-75
2023/07/29 11:27:55;;;;;;;3.65;1.70;;;23.30;99.90;;;;;;5084341;28;20047;-75
2023/07/29 11:30:22;;;;;;;2.78;1.27;;;23.30;99.90;;;;;;5078837;28;20033;-75
2023/07/29 11:32:49;;;;;;;2.58;1.58;;;23.30;99.90;;;;;;5078026;28;20025;-77
2023/07/29 11:35:16;;;;;;;3.78;1.45;;;23.30;99.90;;;;;;5075790;28;20025;-76
2023/07/29 11:37:44;;;;;;;2.47;1.20;;;23.40;99.90;;;;;;5087881;28;20031;-76
2023/07/29 11:40:17;;;;;;;2.45;1.02;;;23.40;99.90;;;;;;5085583;28;20060;-76
2023/07/29 11:42:43;;;;;;;1.08;0.80;;;23.40;99.90;;;;;;5070974;28;20107;-76
2023/07/29 11:45:09;;;;;;;1.92;0.85;;;23.40;99.90;;;;;;5072513;28;20033;-76
2023/07/29 11:47:36;;;;;;;1.58;0.70;;;23.40;99.90;;;;;;5076850;28;20027;-76
2023/07/29 11:50:03;;;;;;;1.08;0.50;;;23.40;99.90;;;;;;5073079;28;20512;-77
2023/07/29 11:52:32;;;;;;;1.77;0.57;;;23.40;99.90;;;;;;5075693;28;20028;-78
2023/07/29 11:54:58;;;;;;;1.92;0.73;;;23.40;99.90;;;;;;5082302;28;20106;-75
2023/07/29 11:57:24;;;;;;;1.67;0.63;;;23.40;99.90;;;;;;5077773;28;20075;-76
2023/07/29 11:59:50;;;;;;;0.90;0.50;;;23.40;99.90;;;;;;5075141;28;20033;-79
2023/07/29 12:02:19;;;;;;;3.17;1.00;;;23.40;99.90;;;;;;5075209;28;20036;-75
2023/07/29 12:04:47;;;;;;;3.28;0.90;;;23.40;99.90;;;;;;5081754;28;20024;-75
2023/07/29 12:07:18;;;;;;;4.07;0.73;;;23.40;99.90;;;;;;5087119;28;20126;-74
2023/07/29 12:09:44;;;;;;;1.83;0.40;;;23.40;99.90;;;;;;5082592;28;20028;-74
2023/07/29 12:12:10;;;;;;;2.55;0.63;;;23.40;99.90;;;;;;5077078;28;20119;-79
2023/07/29 12:14:36;;;;;;;4.53;1.02;;;23.50;99.90;;;;;;5076760;28;20115;-79
2023/07/29 12:17:07;;;;;;;2.58;0.68;;;23.50;99.90;;;;;;5082994;28;20055;-78
2023/07/29 12:19:34;;;;;;;0.88;0.55;;;23.50;99.90;;;;;;5081883;28;20110;-77
2023/07/29 12:22:01;;;;;;;1.38;0.55;;;23.50;99.90;;;;;;5081145;28;20051;-76
2023/07/29 12:24:27;;;;;;;4.30;0.80;;;23.50;99.90;;;;;;5092948;28;20389;-77
2023/07/29 12:26:52;;;;;;;1.80;0.80;;;23.50;99.90;;;;;;5091739;28;20495;-74
2023/07/29 12:29:22;;;;;;;2.20;0.50;;;23.50;99.90;;;;;;5091972;28;20396;-77
2023/07/29 12:31:48;;;;;;;2.53;0.65;;;23.50;99.90;;;;;;5089420;28;20488;-76
2023/07/29 12:34:21;;;;;;;2.00;0.77;;;23.50;99.90;;;;;;5093366;28;20465;-76
2023/07/29 12:36:48;;;;;;;4.25;0.70;;;23.50;99.90;;;;;;5093277;28;20028;-75
2023/07/29 12:39:25;;;;;;;2.22;0.55;;;23.50;99.90;;;;;;5092160;28;20066;-77
2023/07/29 12:41:52;;;;;;;1.45;0.52;;;23.50;99.90;;;;;;5093254;28;20031;-77
2023/07/29 12:44:18;;;;;;;1.83;0.40;;;23.50;99.90;;;;;;5093296;28;20389;-76
2023/07/29 12:46:44;;;;;;;3.22;0.90;;;23.50;99.90;;;;;;5093267;28;20465;-76